createdAt,value
2023-04-22T06:57:53.297Z,65.75
2023-04-22T07:00:19.780Z,63.66
2023-04-22T07:02:46.318Z,63.26
2023-04-22T07:05:12.914Z,64.04
2023-04-22T07:07:39.339Z,64.64
2023-04-22T07:10:06.077Z,61.69
2023-04-22T07:12:32.460Z,62.88
2023-04-22T07:14:58.875Z,60.19
2023-04-22T07:17:25.408Z,57.99
2023-04-22T07:19:51.801Z,58.37
2023-04-22T07:22:18.242Z,57.54
2023-04-22T07:24:44.631Z,56.04
2023-04-22T07:27:11.338Z,55.36
2023-04-22T07:29:38.000Z,56.09
2023-04-22T07:32:04.729Z,54.94
2023-04-22T07:34:31.176Z,55.00
2023-04-22T07:36:57.654Z,56.62
2023-04-22T07:39:24.054Z,56.20
2023-04-22T07:41:51.290Z,55.82
2023-04-22T07:44:21.397Z,54.87
2023-04-22T07:46:48.593Z,53.23
2023-04-22T07:49:16.896Z,54.59
2023-04-22T07:51:44.690Z,55.26
2023-04-22T07:54:11.111Z,55.69
2023-04-22T07:56:37.658Z,56.30
2023-04-22T07:59:04.222Z,56.83
2023-04-22T08:01:30.843Z,57.06
2023-04-22T08:03:57.767Z,57.05
2023-04-22T08:06:24.442Z,56.70
2023-04-22T08:08:50.851Z,56.89
2023-04-22T08:11:17.240Z,57.92
2023-04-22T08:13:43.718Z,57.93
2023-04-22T08:16:10.347Z,58.13
2023-04-22T08:18:36.797Z,58.38
2023-04-22T08:21:03.331Z,57.46
2023-04-22T08:23:29.871Z,57.24
2023-04-22T08:25:56.251Z,57.48
2023-04-22T08:28:22.967Z,57.83
2023-04-22T08:30:49.340Z,58.04
2023-04-22T08:33:16.852Z,58.20
2023-04-22T08:35:43.296Z,58.67
2023-04-22T08:38:09.694Z,59.21
2023-04-22T08:40:36.496Z,60.32
2023-04-22T08:43:02.998Z,60.28
2023-04-22T08:45:29.970Z,59.99
2023-04-22T08:47:57.124Z,59.43
2023-04-22T08:50:23.551Z,58.99
2023-04-22T08:52:50.001Z,58.95
2023-04-22T08:55:16.638Z,59.22
2023-04-22T08:57:44.097Z,58.50
2023-04-22T09:00:10.976Z,58.65
2023-04-22T09:02:38.609Z,58.40
2023-04-22T09:05:07.092Z,59.22
2023-04-22T09:07:33.494Z,59.86
2023-04-22T09:09:59.856Z,59.64
2023-04-22T09:12:26.264Z,59.23
2023-04-22T09:14:52.842Z,59.51
2023-04-22T09:17:31.073Z,59.10
2023-04-22T09:20:01.844Z,58.57
2023-04-22T09:22:36.678Z,59.00
2023-04-22T09:25:07.280Z,58.99
2023-04-22T09:27:35.574Z,57.92
2023-04-22T09:30:07.909Z,57.25
2023-04-22T09:32:34.435Z,57.80
2023-04-22T09:35:01.728Z,56.08
2023-04-22T09:37:36.115Z,57.45
2023-04-22T09:40:09.600Z,57.39
2023-04-22T09:42:48.614Z,56.83
2023-04-22T09:45:26.172Z,56.98
2023-04-22T09:47:53.468Z,56.66
2023-04-22T09:50:21.567Z,54.93
2023-04-22T09:52:58.859Z,56.57
2023-04-22T09:55:27.754Z,57.44
2023-04-22T09:57:56.367Z,56.58
2023-04-22T10:00:30.603Z,56.86
2023-04-22T10:02:57.131Z,57.06
2023-04-22T10:05:25.337Z,57.64
2023-04-22T10:07:52.052Z,58.39
2023-04-22T10:10:18.547Z,57.97
2023-04-22T10:12:47.093Z,57.04
2023-04-22T10:15:13.768Z,57.89
2023-04-22T10:17:41.157Z,58.37
2023-04-22T10:20:13.917Z,57.35
2023-04-22T10:22:42.801Z,56.83
2023-04-22T10:25:20.933Z,57.17
2023-04-22T10:27:54.222Z,57.50
2023-04-22T10:30:29.370Z,56.46
2023-04-22T10:32:55.934Z,56.72
2023-04-22T10:35:29.309Z,56.76
2023-04-22T10:37:55.746Z,56.66
2023-04-22T10:40:23.113Z,56.31
2023-04-22T10:42:52.207Z,56.37
2023-04-22T10:45:19.029Z,55.66
2023-04-22T10:47:46.140Z,52.70
2023-04-22T10:50:32.943Z,53.66
2023-04-22T10:53:20.209Z,54.16
2023-04-22T10:55:51.881Z,52.80
2023-04-22T10:58:20.395Z,53.46
2023-04-22T11:03:24.680Z,53.04
2023-04-22T11:06:17.684Z,53.69
2023-04-22T11:08:49.114Z,52.73
2023-04-22T11:11:19.477Z,53.13
2023-04-22T11:13:50.256Z,52.99
2023-04-22T11:16:17.464Z,52.94
2023-04-22T11:18:47.023Z,52.98
2023-04-22T11:21:14.273Z,52.60
2023-04-22T11:23:52.082Z,51.12
2023-04-22T11:26:19.717Z,52.00
2023-04-22T11:28:46.667Z,51.20
2023-04-22T11:31:14.702Z,49.66
2023-04-22T11:33:41.312Z,51.40
2023-04-22T11:36:12.066Z,51.63
2023-04-22T11:38:38.447Z,51.83
2023-04-22T11:41:05.154Z,49.62
2023-04-22T11:43:31.682Z,50.07
2023-04-22T11:45:58.344Z,50.35
2023-04-22T11:48:24.819Z,49.98
2023-04-22T11:51:08.846Z,49.13
2023-04-22T11:53:35.281Z,49.29
2023-04-22T11:56:03.716Z,50.43
2023-04-22T11:58:30.558Z,49.30
2023-04-22T12:00:58.755Z,49.02
2023-04-22T12:03:27.923Z,49.19
2023-04-22T12:05:59.692Z,48.51
2023-04-22T12:08:49.379Z,48.57
2023-04-22T12:11:15.845Z,49.45
2023-04-22T12:13:45.449Z,48.87
2023-04-22T12:16:14.320Z,49.68
2023-04-22T12:18:48.289Z,48.75
2023-04-22T12:21:17.321Z,48.10
2023-04-22T12:23:48.790Z,47.38
2023-04-22T12:26:16.694Z,47.83
2023-04-22T12:28:44.540Z,48.92
2023-04-22T12:31:11.639Z,48.05
2023-04-22T12:33:38.728Z,47.17
2023-04-22T12:36:06.403Z,47.04
2023-04-22T12:38:33.357Z,47.60
2023-04-22T12:41:00.448Z,46.91
2023-04-22T12:43:27.076Z,48.12
2023-04-22T12:45:53.526Z,47.45
2023-04-22T12:48:20.191Z,47.80
2023-04-22T12:50:46.582Z,47.66
2023-04-22T12:53:13.303Z,48.31
2023-04-22T12:55:40.974Z,47.17
2023-04-22T12:58:07.522Z,47.98
2023-04-22T13:00:34.003Z,48.01
2023-04-22T13:03:00.673Z,49.25
2023-04-22T13:05:27.312Z,48.63
2023-04-22T13:08:05.877Z,48.37
2023-04-22T13:10:34.119Z,48.73
2023-04-22T13:13:16.088Z,49.31
2023-04-22T13:15:45.011Z,49.12
2023-04-22T13:18:11.493Z,49.27
2023-04-22T13:20:38.014Z,49.53
2023-04-22T13:23:05.154Z,48.54
2023-04-22T13:25:32.118Z,49.58
2023-04-22T13:27:58.586Z,48.47
2023-04-22T13:30:24.961Z,47.60
2023-04-22T13:32:52.256Z,47.29
2023-04-22T13:35:18.785Z,47.52
2023-04-22T13:37:46.201Z,49.15
2023-04-22T13:40:12.922Z,47.67
2023-04-22T13:42:39.384Z,47.29
2023-04-22T13:45:07.017Z,47.92
2023-04-22T13:47:33.718Z,48.39
2023-04-22T13:50:01.610Z,47.96
2023-04-22T13:52:28.172Z,48.34
2023-04-22T13:54:54.589Z,48.74
2023-04-22T13:57:21.557Z,47.87
2023-04-22T13:59:49.263Z,47.34
2023-04-22T14:02:15.946Z,47.50
2023-04-22T14:04:42.363Z,47.56
2023-04-22T14:07:08.747Z,47.30
2023-04-22T14:09:35.392Z,47.45
2023-04-22T14:12:03.135Z,46.72
2023-04-22T14:14:29.705Z,47.40
2023-04-22T14:16:56.107Z,47.02
2023-04-22T14:19:23.900Z,46.80
2023-04-22T14:21:50.298Z,47.20
2023-04-22T14:24:17.066Z,47.36
2023-04-22T14:26:43.461Z,46.89
2023-04-22T14:29:10.259Z,45.76
2023-04-22T14:31:36.621Z,46.29
2023-04-22T14:34:03.353Z,46.28
2023-04-22T14:36:29.910Z,45.72
2023-04-22T14:38:56.500Z,46.21
2023-04-22T14:41:23.157Z,45.96
2023-04-22T14:43:49.680Z,45.58
2023-04-22T14:46:16.093Z,45.56
2023-04-22T14:48:42.534Z,44.73
2023-04-22T14:51:08.926Z,44.37
2023-04-22T14:53:35.309Z,45.20
2023-04-22T14:56:01.744Z,45.04
2023-04-22T14:58:31.321Z,44.79
2023-04-22T15:00:59.834Z,45.51
2023-04-22T15:03:26.580Z,46.08
2023-04-22T15:05:54.860Z,46.37
2023-04-22T15:08:21.632Z,45.91
2023-04-22T15:10:48.040Z,45.61
2023-04-22T15:13:14.488Z,44.44
2023-04-22T15:15:41.168Z,45.04
2023-04-22T15:18:07.616Z,45.31
2023-04-22T15:20:34.649Z,44.51
2023-04-22T15:23:02.011Z,45.54
2023-04-22T15:25:28.458Z,44.44
2023-04-22T15:27:56.879Z,44.88
2023-04-22T15:30:24.367Z,45.05
2023-04-22T15:32:50.805Z,45.15
2023-04-22T15:35:17.339Z,45.15
2023-04-22T15:37:45.071Z,44.81
2023-04-22T15:40:11.608Z,45.69
2023-04-22T15:42:38.010Z,45.08
2023-04-22T15:45:04.986Z,45.49
2023-04-22T15:47:32.584Z,44.01
2023-04-22T15:50:05.948Z,44.82
2023-04-22T15:52:32.975Z,44.03
2023-04-22T15:55:02.019Z,44.61
2023-04-22T15:57:28.907Z,43.69
2023-04-22T16:00:06.779Z,44.55
2023-04-22T16:02:37.271Z,43.42
2023-04-22T16:05:04.638Z,44.03
2023-04-22T16:07:31.655Z,43.49
2023-04-22T16:09:59.263Z,43.43
2023-04-22T16:12:25.644Z,43.96
2023-04-22T16:14:52.023Z,44.05
2023-04-22T16:17:18.696Z,43.96
2023-04-22T16:19:45.253Z,44.38
2023-04-22T16:22:11.822Z,44.34
2023-04-22T16:24:38.206Z,44.35
2023-04-22T16:27:04.575Z,44.21
2023-04-22T16:29:31.307Z,44.28
2023-04-22T16:31:57.694Z,44.02
2023-04-22T16:34:24.054Z,44.25
2023-04-22T16:36:50.937Z,43.77
2023-04-22T16:39:18.991Z,43.75
2023-04-22T16:41:46.554Z,44.63
2023-04-22T16:44:12.942Z,45.34
2023-04-22T16:46:39.379Z,44.76
2023-04-22T16:49:08.448Z,44.78
2023-04-22T16:51:37.942Z,44.48
2023-04-22T16:54:04.395Z,43.94
2023-04-22T16:56:30.784Z,43.64
2023-04-22T16:58:57.216Z,43.37
2023-04-22T17:01:24.188Z,43.94
2023-04-22T17:03:50.813Z,43.85
2023-04-22T17:06:17.674Z,43.78
2023-04-22T17:08:44.049Z,43.77
2023-04-22T17:11:11.850Z,43.66
2023-04-22T17:13:38.249Z,42.92
2023-04-22T17:16:04.776Z,43.31
2023-04-22T17:18:31.185Z,43.42
2023-04-22T17:20:57.828Z,42.69
2023-04-22T17:23:24.175Z,43.28
2023-04-22T17:25:50.641Z,42.58
2023-04-22T17:28:17.057Z,42.85
2023-04-22T17:30:43.463Z,42.85
2023-04-22T17:33:09.879Z,42.79
2023-04-22T17:35:36.279Z,42.90
2023-04-22T17:38:02.663Z,43.44
2023-04-22T17:40:29.432Z,43.45
2023-04-22T17:42:55.803Z,43.44
2023-04-22T17:45:22.221Z,43.33
2023-04-22T17:47:48.773Z,43.63
2023-04-22T17:50:15.473Z,43.44
2023-04-22T17:52:41.868Z,43.21
2023-04-22T17:55:08.798Z,43.60
2023-04-22T17:57:35.229Z,43.59
2023-04-22T18:00:01.647Z,43.61
2023-04-22T18:02:28.204Z,44.11
2023-04-22T18:04:54.704Z,44.26
2023-04-22T18:07:21.137Z,44.23
2023-04-22T18:09:49.456Z,44.86
2023-04-22T18:12:15.971Z,44.97
2023-04-22T18:14:42.439Z,44.77
2023-04-22T18:17:08.828Z,44.69
2023-04-22T18:19:35.183Z,45.00
2023-04-22T18:22:01.701Z,45.21
2023-04-22T18:24:28.237Z,45.38
2023-04-22T18:26:54.658Z,45.67
2023-04-22T18:29:21.096Z,46.01
2023-04-22T18:31:47.657Z,45.78
2023-04-22T18:34:15.774Z,45.87
2023-04-22T18:36:42.204Z,46.07
2023-04-22T18:39:09.440Z,46.14
2023-04-22T18:41:37.961Z,46.10
2023-04-22T18:44:04.666Z,46.21
2023-04-22T18:46:31.124Z,46.32
2023-04-22T18:48:57.587Z,46.58
2023-04-22T18:51:23.984Z,46.64
2023-04-22T18:53:50.394Z,46.82
2023-04-22T18:56:16.798Z,46.90
2023-04-22T18:58:43.146Z,47.03
2023-04-22T19:01:09.881Z,47.20
2023-04-22T19:03:36.554Z,47.40
2023-04-22T19:06:03.564Z,47.51
2023-04-22T19:08:30.110Z,47.51
2023-04-22T19:10:56.670Z,47.85
2023-04-22T19:15:54.835Z,48.28
2023-04-22T19:18:21.416Z,48.29
2023-04-22T19:20:47.929Z,48.51
2023-04-22T19:23:15.265Z,48.70
2023-04-22T19:25:42.503Z,48.73
2023-04-22T19:28:08.924Z,48.78
2023-04-22T19:30:35.358Z,48.55
2023-04-22T19:33:02.249Z,48.62
2023-04-22T19:35:28.670Z,48.64
2023-04-22T19:37:55.053Z,48.52
2023-04-22T19:40:21.417Z,48.70
2023-04-22T19:42:47.778Z,48.85
2023-04-22T19:45:14.160Z,49.14
2023-04-22T19:47:40.921Z,49.53
2023-04-22T19:50:08.483Z,49.34
2023-04-22T19:52:36.108Z,49.16
2023-04-22T19:55:11.784Z,49.18
2023-04-22T19:57:41.911Z,49.11
2023-04-22T20:00:11.046Z,49.05
2023-04-22T20:02:38.530Z,49.17
2023-04-22T20:05:06.212Z,49.14
2023-04-22T20:07:33.801Z,49.49
2023-04-22T20:10:03.111Z,49.44
2023-04-22T20:12:29.715Z,49.24
2023-04-22T20:14:57.836Z,49.48
2023-04-22T20:17:25.448Z,49.95
2023-04-22T20:19:52.803Z,49.98
2023-04-22T20:22:22.111Z,50.17
2023-04-22T20:25:02.519Z,49.96
2023-04-22T20:27:30.777Z,50.50
2023-04-22T20:30:01.502Z,50.25
2023-04-22T20:32:29.081Z,50.27
2023-04-22T20:34:56.474Z,50.36
2023-04-22T20:37:25.752Z,50.54
2023-04-22T20:39:53.143Z,50.55
2023-04-22T20:42:20.593Z,50.45
2023-04-22T20:44:47.936Z,50.23
2023-04-22T20:47:16.328Z,50.00
2023-04-22T20:49:43.514Z,50.25
2023-04-22T20:52:10.930Z,49.87
2023-04-22T20:54:39.138Z,50.11
2023-04-22T20:57:07.094Z,50.37
2023-04-22T20:59:34.277Z,50.48
2023-04-22T21:02:02.046Z,50.50
2023-04-22T21:04:29.558Z,50.66
2023-04-22T21:06:56.658Z,51.10
2023-04-22T21:09:26.239Z,50.85
2023-04-22T21:11:53.178Z,51.89
2023-04-22T21:14:22.070Z,52.06
2023-04-22T21:17:03.761Z,53.01
2023-04-22T21:19:34.228Z,53.57
2023-04-22T21:22:07.877Z,53.54
2023-04-22T21:24:35.075Z,53.73
2023-04-22T21:27:02.019Z,54.38
2023-04-22T21:29:29.158Z,53.94
2023-04-22T21:32:08.109Z,53.86
2023-04-22T21:34:35.728Z,54.33
2023-04-22T21:37:02.394Z,55.78
2023-04-22T21:39:29.720Z,56.17
2023-04-22T21:41:56.110Z,57.58
2023-04-22T21:44:22.706Z,58.39
2023-04-22T21:46:49.061Z,59.59
2023-04-22T21:49:15.932Z,60.42
2023-04-22T21:51:42.448Z,60.77
2023-04-22T21:54:09.139Z,62.11
2023-04-22T21:56:35.833Z,62.90
2023-04-22T21:59:02.327Z,64.64
2023-04-22T22:01:28.724Z,66.04
2023-04-22T22:03:55.305Z,66.04
2023-04-22T22:06:21.792Z,66.52
2023-04-22T22:08:48.185Z,66.29
2023-04-22T22:11:27.450Z,66.68
2023-04-22T22:13:56.610Z,66.65
2023-04-22T22:16:23.437Z,67.42
2023-04-22T22:18:50.544Z,67.29
2023-04-22T22:21:17.106Z,67.25
2023-04-22T22:23:43.530Z,67.23
2023-04-22T22:26:09.917Z,67.78
2023-04-22T22:28:36.298Z,68.45
2023-04-22T22:31:02.719Z,68.94
2023-04-22T22:33:29.605Z,69.34
2023-04-22T22:35:56.274Z,69.80
2023-04-22T22:38:22.699Z,70.34
2023-04-22T22:40:49.195Z,71.14
2023-04-22T22:43:15.595Z,70.99
2023-04-22T22:45:42.038Z,72.17
2023-04-22T22:48:08.497Z,72.40
2023-04-22T22:50:34.965Z,72.53
2023-04-22T22:53:01.326Z,72.65
2023-04-22T22:55:27.818Z,72.85
2023-04-22T22:57:54.167Z,72.76
2023-04-22T23:00:20.557Z,72.92
2023-04-22T23:02:47.254Z,73.02
2023-04-22T23:05:13.752Z,72.95
2023-04-22T23:07:40.123Z,72.57
2023-04-22T23:10:07.486Z,73.14
2023-04-22T23:12:34.373Z,72.57
2023-04-22T23:15:01.455Z,72.70
2023-04-22T23:17:27.824Z,72.85
2023-04-22T23:19:55.489Z,73.11
2023-04-22T23:22:22.938Z,73.33
2023-04-22T23:24:49.564Z,73.12
2023-04-22T23:27:17.306Z,72.98
2023-04-22T23:29:44.636Z,73.44
2023-04-22T23:32:15.293Z,73.71
2023-04-22T23:34:45.972Z,73.68
2023-04-22T23:37:14.879Z,74.34
2023-04-22T23:39:42.751Z,73.81
2023-04-22T23:42:09.274Z,73.64
2023-04-22T23:44:35.835Z,73.66
2023-04-22T23:47:03.090Z,73.50
2023-04-22T23:49:29.959Z,73.71
2023-04-22T23:51:56.379Z,73.59
2023-04-22T23:54:22.986Z,73.25
2023-04-22T23:56:49.922Z,73.54
2023-04-22T23:59:16.571Z,73.71
